createdAt,value
2019-05-20T00:00:50.088Z,99.90
2019-05-20T00:03:19.573Z,99.90
2019-05-20T00:05:49.022Z,99.90
2019-05-20T00:08:18.407Z,99.90
2019-05-20T00:10:47.764Z,99.90
2019-05-20T00:13:17.196Z,99.90
2019-05-20T00:15:46.612Z,99.90
2019-05-20T00:18:16.356Z,99.90
2019-05-20T00:20:45.794Z,99.90
2019-05-20T00:23:15.218Z,99.90
2019-05-20T00:25:44.603Z,99.90
2019-05-20T00:28:14.073Z,99.90
2019-05-20T00:30:43.563Z,99.90
2019-05-20T00:33:13.024Z,99.90
2019-05-20T00:35:42.388Z,99.90
2019-05-20T00:38:12.641Z,99.90
2019-05-20T00:40:42.060Z,99.90
2019-05-20T00:43:11.522Z,99.90
2019-05-20T00:45:41.046Z,99.90
2019-05-20T00:48:10.464Z,99.90
2019-05-20T00:50:39.806Z,99.90
2019-05-20T00:53:13.111Z,99.90
2019-05-20T00:55:42.553Z,99.90
2019-05-20T00:58:11.955Z,99.90
2019-05-20T01:00:41.522Z,99.90
2019-05-20T01:03:10.972Z,99.90
2019-05-20T01:05:41.802Z,99.90
2019-05-20T01:08:11.209Z,99.90
2019-05-20T01:10:40.672Z,99.90
2019-05-20T01:13:10.064Z,99.90
2019-05-20T01:15:39.502Z,99.90
2019-05-20T01:18:08.820Z,99.90
2019-05-20T01:20:38.240Z,99.90
2019-05-20T01:23:07.660Z,99.90
2019-05-20T01:25:37.057Z,99.90
2019-05-20T01:28:06.486Z,99.90
2019-05-20T01:30:35.947Z,99.90
2019-05-20T01:33:13.644Z,99.90
2019-05-20T01:35:36.424Z,99.90
2019-05-20T01:38:05.841Z,99.90
2019-05-20T01:40:35.228Z,99.90
2019-05-20T01:43:04.673Z,99.90
2019-05-20T01:45:34.045Z,99.90
2019-05-20T01:48:03.456Z,99.90
2019-05-20T01:50:32.794Z,99.90
2019-05-20T01:53:02.220Z,99.90
2019-05-20T01:55:31.687Z,99.90
2019-05-20T01:58:01.129Z,99.90
2019-05-20T02:00:30.530Z,99.90
2019-05-20T02:02:59.880Z,99.90
2019-05-20T02:05:29.340Z,99.90
2019-05-20T02:07:59.352Z,99.90
2019-05-20T02:10:28.793Z,99.90
2019-05-20T02:12:58.194Z,99.90
2019-05-20T02:15:36.235Z,99.90
2019-05-20T02:18:05.750Z,99.90
2019-05-20T02:20:35.177Z,99.90
2019-05-20T02:23:16.738Z,99.90
2019-05-20T02:25:50.464Z,99.90
2019-05-20T02:28:38.868Z,99.90
2019-05-20T02:31:08.199Z,99.90
2019-05-20T02:33:50.887Z,99.90
2019-05-20T02:36:08.588Z,99.90
2019-05-20T02:38:37.864Z,99.90
2019-05-20T02:41:07.260Z,99.90
2019-05-20T02:43:36.655Z,99.90
2019-05-20T02:46:07.692Z,99.90
2019-05-20T02:48:37.208Z,99.90
2019-05-20T02:51:06.514Z,99.90
2019-05-20T02:53:35.893Z,99.90
2019-05-20T02:56:05.306Z,99.90
2019-05-20T02:58:34.605Z,99.90
2019-05-20T03:01:03.948Z,99.90
2019-05-20T03:03:33.249Z,99.90
2019-05-20T03:06:02.602Z,99.90
2019-05-20T03:08:33.903Z,99.90
2019-05-20T03:11:02.846Z,99.90
2019-05-20T03:13:32.208Z,99.90
2019-05-20T03:16:01.514Z,99.90
2019-05-20T03:18:30.866Z,99.90
2019-05-20T03:21:00.242Z,99.90
2019-05-20T03:23:29.587Z,99.90
2019-05-20T03:25:58.875Z,99.90
2019-05-20T03:28:28.301Z,99.90
2019-05-20T03:30:57.614Z,99.90
2019-05-20T03:33:27.139Z,99.90
2019-05-20T03:35:56.412Z,99.90
2019-05-20T03:38:25.816Z,99.90
2019-05-20T03:40:55.167Z,99.90
2019-05-20T03:43:24.649Z,99.90
2019-05-20T03:45:53.958Z,99.90
2019-05-20T03:48:23.280Z,99.90
2019-05-20T03:50:52.666Z,99.90
2019-05-20T03:53:22.008Z,99.90
2019-05-20T03:55:51.393Z,99.90
2019-05-20T03:58:20.987Z,99.90
2019-05-20T04:00:51.041Z,99.90
2019-05-20T04:03:20.505Z,99.90
2019-05-20T04:05:49.808Z,99.90
2019-05-20T04:08:19.189Z,99.90
2019-05-20T04:10:48.529Z,99.90
2019-05-20T04:13:17.901Z,99.90
2019-05-20T04:15:47.328Z,99.90
2019-05-20T04:18:16.645Z,99.90
2019-05-20T04:20:45.979Z,99.90
2019-05-20T04:23:15.376Z,99.90
2019-05-20T04:25:44.755Z,99.90
2019-05-20T04:28:14.062Z,99.90
2019-05-20T04:30:43.525Z,99.90
2019-05-20T04:33:14.152Z,99.90
2019-05-20T04:35:43.565Z,99.90
2019-05-20T04:38:12.852Z,99.90
2019-05-20T04:40:43.549Z,99.90
2019-05-20T04:43:12.926Z,99.90
2019-05-20T04:45:43.009Z,99.90
2019-05-20T04:48:13.934Z,99.90
2019-05-20T04:50:43.624Z,99.90
2019-05-20T04:53:12.941Z,99.90
2019-05-20T04:55:42.313Z,99.90
2019-05-20T04:58:11.745Z,99.90
2019-05-20T05:00:53.159Z,99.90
2019-05-20T05:03:24.146Z,99.90
2019-05-20T05:05:53.778Z,99.90
2019-05-20T05:08:23.668Z,99.90
2019-05-20T05:10:53.735Z,99.90
2019-05-20T05:13:23.938Z,99.90
2019-05-20T05:15:53.571Z,99.90
2019-05-20T05:18:23.285Z,99.90
2019-05-20T05:20:52.687Z,99.90
2019-05-20T05:23:23.950Z,99.90
2019-05-20T05:25:53.444Z,99.90
2019-05-20T05:28:22.934Z,99.90
2019-05-20T05:30:52.406Z,99.90
2019-05-20T05:33:21.772Z,99.90
2019-05-20T05:35:53.615Z,99.90
2019-05-20T05:38:22.766Z,99.90
2019-05-20T05:40:52.175Z,99.90
2019-05-20T05:43:21.636Z,99.90
2019-05-20T05:45:50.980Z,99.90
2019-05-20T05:48:20.418Z,99.90
2019-05-20T05:50:49.734Z,99.90
2019-05-20T05:53:19.136Z,99.90
2019-05-20T05:55:48.537Z,99.90
2019-05-20T05:58:17.875Z,99.90
2019-05-20T06:00:47.293Z,99.90
2019-05-20T06:03:16.654Z,99.90
2019-05-20T06:05:45.993Z,99.90
2019-05-20T06:08:15.357Z,99.90
2019-05-20T06:10:44.781Z,99.90
2019-05-20T06:13:14.121Z,99.90
2019-05-20T06:15:43.450Z,99.90
2019-05-20T06:18:12.765Z,99.90
2019-05-20T06:20:42.207Z,99.90
2019-05-20T06:23:11.514Z,99.90
2019-05-20T06:25:40.911Z,99.90
2019-05-20T06:28:10.279Z,99.90
2019-05-20T06:30:42.662Z,99.90
2019-05-20T06:33:12.089Z,99.90
2019-05-20T06:35:42.025Z,99.90
2019-05-20T06:38:16.482Z,99.90
2019-05-20T06:40:45.839Z,99.90
2019-05-20T06:43:15.190Z,99.90
2019-05-20T06:45:44.514Z,99.90
2019-05-20T06:48:13.843Z,99.90
2019-05-20T06:50:45.087Z,99.90
2019-05-20T06:53:14.242Z,99.90
2019-05-20T06:55:43.650Z,99.90
2019-05-20T06:58:12.984Z,99.90
2019-05-20T07:00:43.864Z,99.90
2019-05-20T07:03:13.207Z,99.90
2019-05-20T07:05:42.509Z,99.90
2019-05-20T07:08:12.029Z,99.90
2019-05-20T07:10:41.594Z,99.90
2019-05-20T07:13:11.022Z,99.90
2019-05-20T07:15:40.332Z,99.90
2019-05-20T07:18:09.723Z,99.90
2019-05-20T07:20:39.055Z,99.90
2019-05-20T07:23:08.478Z,99.90
2019-05-20T07:25:37.853Z,99.90
2019-05-20T07:28:07.194Z,99.90
2019-05-20T07:30:36.576Z,99.90
2019-05-20T07:33:05.888Z,99.90
2019-05-20T07:35:35.272Z,99.90
2019-05-20T07:38:04.635Z,99.90
2019-05-20T07:40:34.686Z,99.90
2019-05-20T07:43:04.674Z,99.90
2019-05-20T07:45:36.610Z,99.90
2019-05-20T07:48:07.548Z,99.90
2019-05-20T07:50:39.815Z,99.90
2019-05-20T07:53:10.324Z,99.90
2019-05-20T07:55:46.503Z,99.90
2019-05-20T07:58:18.971Z,99.90
2019-05-20T08:00:48.445Z,99.90
2019-05-20T08:03:18.444Z,99.90
2019-05-20T08:05:47.870Z,99.50
2019-05-20T08:08:17.204Z,97.00
2019-05-20T08:10:46.660Z,93.90
2019-05-20T08:13:15.955Z,85.00
2019-05-20T08:15:45.375Z,79.10
2019-05-20T08:18:14.812Z,78.10
2019-05-20T08:20:44.222Z,80.40
2019-05-20T08:23:13.633Z,79.90
2019-05-20T08:25:43.129Z,74.20
2019-05-20T08:28:12.573Z,69.00
2019-05-20T08:30:41.896Z,65.20
2019-05-20T08:33:11.204Z,62.20
2019-05-20T08:35:40.701Z,59.20
2019-05-20T08:38:10.146Z,57.60
2019-05-20T08:40:39.442Z,55.30
2019-05-20T08:43:08.881Z,54.70
2019-05-20T08:45:38.286Z,53.30
2019-05-20T08:48:07.694Z,51.50
2019-05-20T08:50:37.067Z,50.50
2019-05-20T08:53:06.520Z,48.70
2019-05-20T08:55:35.955Z,47.40
2019-05-20T08:58:05.403Z,46.70
2019-05-20T09:00:34.794Z,44.20
2019-05-20T09:03:04.218Z,42.90
2019-05-20T09:05:33.747Z,42.30
2019-05-20T09:08:04.128Z,42.00
2019-05-20T09:10:33.605Z,40.50
2019-05-20T09:13:03.064Z,39.80
2019-05-20T09:15:32.702Z,39.60
2019-05-20T09:18:02.250Z,38.70
2019-05-20T09:20:32.075Z,38.50
2019-05-20T09:23:02.890Z,37.50
2019-05-20T09:25:33.125Z,37.60
2019-05-20T09:28:02.759Z,36.90
2019-05-20T09:30:32.186Z,36.00
2019-05-20T09:33:01.736Z,35.40
2019-05-20T09:35:31.097Z,35.30
2019-05-20T09:38:00.505Z,33.90
2019-05-20T09:40:42.071Z,33.20
2019-05-20T09:43:11.529Z,33.60
2019-05-20T09:45:40.950Z,33.00
2019-05-20T09:48:11.157Z,33.40
2019-05-20T09:50:40.784Z,33.50
2019-05-20T09:53:10.145Z,34.30
2019-05-20T09:55:39.654Z,34.90
2019-05-20T09:58:09.224Z,34.70
2019-05-20T10:00:38.689Z,34.00
2019-05-20T10:03:08.012Z,34.30
2019-05-20T10:05:37.882Z,35.00
2019-05-20T10:08:07.722Z,35.40
2019-05-20T10:10:38.754Z,34.90
2019-05-20T10:13:08.567Z,35.10
2019-05-20T10:15:41.720Z,35.30
2019-05-20T10:18:11.087Z,36.50
2019-05-20T10:20:40.510Z,37.10
2019-05-20T10:23:09.938Z,36.90
2019-05-20T10:25:42.468Z,37.80
2019-05-20T10:28:11.827Z,39.00
2019-05-20T10:30:41.379Z,39.10
2019-05-20T10:33:11.133Z,38.80
2019-05-20T10:35:44.424Z,40.30
2019-05-20T10:38:13.901Z,40.30
2019-05-20T10:40:48.236Z,40.10
2019-05-20T10:43:17.653Z,39.40
2019-05-20T10:45:47.165Z,38.90
2019-05-20T10:48:16.678Z,38.50
2019-05-20T10:50:46.112Z,37.90
2019-05-20T10:53:15.657Z,37.80
2019-05-20T10:55:45.276Z,37.10
2019-05-20T10:58:14.685Z,37.00
2019-05-20T11:01:01.056Z,36.60
2019-05-20T11:03:15.941Z,37.20
2019-05-20T11:05:45.239Z,38.20
2019-05-20T11:08:14.539Z,38.70
2019-05-20T11:10:43.902Z,39.00
2019-05-20T11:13:13.211Z,39.10
2019-05-20T11:15:42.797Z,39.50
2019-05-20T11:18:12.160Z,38.20
2019-05-20T11:20:41.681Z,38.00
2019-05-20T11:23:10.986Z,39.20
2019-05-20T11:25:40.314Z,39.80
2019-05-20T11:28:11.935Z,40.90
2019-05-20T11:30:40.732Z,40.80
2019-05-20T11:33:10.039Z,40.90
2019-05-20T11:35:39.380Z,41.70
2019-05-20T11:38:08.794Z,41.70
2019-05-20T11:40:38.208Z,40.50
2019-05-20T11:43:07.589Z,39.50
2019-05-20T11:45:36.919Z,38.70
2019-05-20T11:48:06.246Z,38.10
2019-05-20T11:50:36.777Z,37.40
2019-05-20T11:53:06.096Z,38.30
2019-05-20T11:55:35.548Z,38.50
2019-05-20T11:58:15.206Z,39.00
2019-05-20T12:00:36.091Z,39.50
2019-05-20T12:03:05.709Z,39.60
2019-05-20T12:05:34.985Z,38.70
2019-05-20T12:08:04.401Z,38.80
2019-05-20T12:10:33.770Z,39.10
2019-05-20T12:13:03.202Z,39.30
2019-05-20T12:15:32.543Z,39.50
2019-05-20T12:18:02.048Z,39.90
2019-05-20T12:20:31.426Z,40.00
2019-05-20T12:23:00.758Z,40.20
2019-05-20T12:25:30.026Z,40.60
2019-05-20T12:27:59.402Z,40.80
2019-05-20T12:30:28.835Z,41.20
2019-05-20T12:33:17.173Z,41.60
2019-05-20T12:35:29.262Z,42.20
2019-05-20T12:37:58.776Z,42.90
2019-05-20T12:40:28.119Z,43.00
2019-05-20T12:42:57.498Z,43.30
2019-05-20T12:45:26.926Z,43.00
2019-05-20T12:47:56.302Z,43.90
2019-05-20T12:50:25.689Z,43.70
2019-05-20T12:52:55.113Z,44.30
2019-05-20T12:55:24.516Z,44.90
2019-05-20T12:57:53.978Z,44.90
2019-05-20T13:00:24.134Z,45.00
2019-05-20T13:02:53.474Z,44.70
2019-05-20T13:05:22.980Z,44.60
2019-05-20T13:07:52.414Z,44.60
2019-05-20T13:10:29.840Z,45.00
2019-05-20T13:12:53.038Z,45.20
2019-05-20T13:15:22.598Z,44.70
2019-05-20T13:17:51.950Z,45.20
2019-05-20T13:20:21.539Z,45.40
2019-05-20T13:22:51.025Z,46.00
2019-05-20T13:25:21.821Z,45.20
2019-05-20T13:27:51.340Z,45.30
2019-05-20T13:30:21.192Z,45.70
2019-05-20T13:32:50.639Z,46.30
2019-05-20T13:35:20.058Z,46.20
2019-05-20T13:37:49.348Z,46.60
2019-05-20T13:40:19.130Z,47.60
2019-05-20T13:42:48.464Z,48.20
2019-05-20T13:45:18.158Z,48.90
2019-05-20T13:47:47.458Z,49.80
2019-05-20T13:50:17.278Z,50.40
2019-05-20T13:52:46.685Z,50.80
2019-05-20T13:55:16.434Z,51.70
2019-05-20T13:57:45.864Z,52.40
2019-05-20T14:00:15.538Z,53.30
2019-05-20T14:02:44.973Z,53.90
2019-05-20T14:05:14.505Z,54.20
2019-05-20T14:07:43.879Z,54.70
2019-05-20T14:10:13.645Z,55.30
2019-05-20T14:12:42.988Z,55.90
2019-05-20T14:15:12.731Z,56.00
2019-05-20T14:17:42.018Z,56.70
2019-05-20T14:20:11.539Z,56.50
2019-05-20T14:22:41.063Z,56.50
2019-05-20T14:25:10.701Z,56.70
2019-05-20T14:27:40.245Z,56.70
2019-05-20T14:30:10.806Z,56.90
2019-05-20T14:32:40.180Z,57.30
2019-05-20T14:35:09.707Z,57.40
2019-05-20T14:37:39.145Z,57.80
2019-05-20T14:40:10.156Z,58.20
2019-05-20T14:42:39.604Z,58.40
2019-05-20T14:45:10.572Z,58.70
2019-05-20T14:47:39.932Z,59.20
2019-05-20T14:50:09.929Z,59.40
2019-05-20T14:52:39.372Z,59.90
2019-05-20T14:55:09.112Z,60.20
2019-05-20T14:57:38.433Z,60.70
2019-05-20T15:00:08.653Z,61.20
2019-05-20T15:02:37.982Z,63.00
2019-05-20T15:05:07.822Z,62.60
2019-05-20T15:07:37.288Z,63.20
2019-05-20T15:10:07.599Z,63.70
2019-05-20T15:12:38.170Z,64.30
2019-05-20T15:15:08.941Z,64.80
2019-05-20T15:17:38.270Z,65.60
2019-05-20T15:20:08.197Z,66.30
2019-05-20T15:22:37.607Z,66.80
2019-05-20T15:25:08.259Z,68.20
2019-05-20T15:27:37.621Z,68.50
2019-05-20T15:30:08.357Z,69.30
2019-05-20T15:32:37.698Z,70.10
2019-05-20T15:35:07.292Z,70.80
2019-05-20T15:37:36.742Z,71.60
2019-05-20T15:40:06.765Z,72.70
2019-05-20T15:42:36.096Z,72.90
2019-05-20T15:45:06.654Z,73.30
2019-05-20T15:47:36.090Z,73.90
2019-05-20T15:50:08.488Z,74.60
2019-05-20T15:52:37.250Z,74.80
2019-05-20T15:55:06.958Z,75.20
2019-05-20T15:57:36.367Z,75.70
2019-05-20T16:00:06.783Z,76.40
2019-05-20T16:02:36.237Z,78.10
2019-05-20T16:05:05.839Z,78.00
2019-05-20T16:07:35.171Z,79.20
2019-05-20T16:10:04.615Z,79.70
2019-05-20T16:12:34.478Z,80.60
2019-05-20T16:15:04.837Z,81.90
2019-05-20T16:17:34.180Z,82.60
2019-05-20T16:20:06.840Z,83.00
2019-05-20T16:22:36.168Z,83.90
2019-05-20T16:25:05.964Z,84.60
2019-05-20T16:27:35.295Z,85.40
2019-05-20T16:30:07.321Z,86.40
2019-05-20T16:32:36.903Z,87.00
2019-05-20T16:35:07.841Z,88.90
2019-05-20T16:37:37.263Z,89.30
2019-05-20T16:40:07.467Z,89.20
2019-05-20T16:42:36.888Z,90.00
2019-05-20T16:45:11.578Z,90.40
2019-05-20T16:47:39.751Z,90.70
2019-05-20T16:50:10.105Z,91.00
2019-05-20T16:52:39.740Z,91.60
2019-05-20T16:55:09.185Z,92.10
2019-05-20T16:57:39.713Z,92.40
2019-05-20T17:00:29.273Z,93.10
2019-05-20T17:02:40.833Z,93.60
2019-05-20T17:05:10.649Z,94.20
2019-05-20T17:07:39.879Z,95.20
2019-05-20T17:10:09.368Z,96.10
2019-05-20T17:12:38.834Z,96.60
2019-05-20T17:15:08.615Z,97.40
2019-05-20T17:17:37.963Z,98.00
2019-05-20T17:20:07.793Z,98.70
2019-05-20T17:22:37.238Z,99.30
2019-05-20T17:25:07.418Z,99.90
2019-05-20T17:27:36.983Z,99.90
2019-05-20T17:30:07.095Z,99.90
2019-05-20T17:32:36.487Z,99.90
2019-05-20T17:35:06.105Z,99.90
2019-05-20T17:37:35.517Z,99.90
2019-05-20T17:40:06.966Z,99.90
2019-05-20T17:42:36.706Z,99.90
2019-05-20T17:45:07.772Z,99.90
2019-05-20T17:47:39.002Z,99.90
2019-05-20T17:50:10.234Z,99.90
2019-05-20T17:52:39.629Z,99.90
2019-05-20T17:55:09.479Z,99.90
2019-05-20T17:57:38.971Z,99.90
2019-05-20T18:00:10.980Z,99.90
2019-05-20T18:02:40.425Z,99.90
2019-05-20T18:05:10.142Z,99.90
2019-05-20T18:07:39.704Z,99.90
2019-05-20T18:10:09.906Z,99.90
2019-05-20T18:12:39.221Z,99.90
2019-05-20T18:15:08.946Z,99.90
2019-05-20T18:17:38.406Z,99.90
2019-05-20T18:20:08.181Z,99.90
2019-05-20T18:22:37.492Z,99.90
2019-05-20T18:25:07.520Z,99.90
2019-05-20T18:27:36.948Z,99.90
2019-05-20T18:30:07.788Z,99.90
2019-05-20T18:32:38.612Z,99.90
2019-05-20T18:35:08.405Z,99.90
2019-05-20T18:37:37.935Z,99.90
2019-05-20T18:40:14.056Z,99.90
2019-05-20T18:42:39.411Z,99.90
2019-05-20T18:45:09.602Z,99.90
2019-05-20T18:47:38.976Z,99.90
2019-05-20T18:50:08.739Z,99.90
2019-05-20T18:52:38.257Z,99.90
2019-05-20T18:55:07.853Z,99.90
2019-05-20T18:57:37.218Z,99.90
2019-05-20T19:00:07.739Z,99.90
2019-05-20T19:02:37.203Z,99.90
2019-05-20T19:05:07.866Z,99.90
2019-05-20T19:07:37.263Z,99.90
2019-05-20T19:10:06.874Z,99.90
2019-05-20T19:12:36.339Z,99.90
2019-05-20T19:15:06.309Z,99.90
2019-05-20T19:17:35.682Z,99.90
2019-05-20T19:20:05.402Z,99.90
2019-05-20T19:22:34.776Z,99.90
2019-05-20T19:25:05.582Z,99.90
2019-05-20T19:27:35.194Z,99.90
2019-05-20T19:30:04.882Z,99.90
2019-05-20T19:32:34.299Z,99.90
2019-05-20T19:35:03.694Z,99.90
2019-05-20T19:37:33.216Z,99.90
2019-05-20T19:40:02.878Z,99.90
2019-05-20T19:42:32.639Z,99.90
2019-05-20T19:45:02.032Z,99.90
2019-05-20T19:47:31.411Z,99.90
2019-05-20T19:50:02.662Z,99.90
2019-05-20T19:52:32.208Z,99.90
2019-05-20T19:55:01.763Z,99.90
2019-05-20T19:57:31.121Z,99.90
2019-05-20T20:00:00.542Z,99.90
2019-05-20T20:02:29.827Z,99.90
2019-05-20T20:04:59.145Z,99.90
2019-05-20T20:07:28.911Z,99.90
2019-05-20T20:09:58.308Z,99.90
2019-05-20T20:12:27.712Z,99.90
2019-05-20T20:14:57.138Z,99.90
2019-05-20T20:17:26.454Z,99.90
2019-05-20T20:19:58.189Z,99.90
2019-05-20T20:22:26.869Z,99.90
2019-05-20T20:24:56.244Z,99.90
2019-05-20T20:27:25.785Z,99.90
2019-05-20T20:29:55.107Z,99.90
2019-05-20T20:32:37.420Z,99.90
2019-05-20T20:34:55.436Z,99.90
2019-05-20T20:37:24.811Z,99.90
2019-05-20T20:39:54.127Z,99.90
2019-05-20T20:42:23.523Z,99.90
2019-05-20T20:44:52.817Z,99.90
2019-05-20T20:47:22.239Z,99.90
2019-05-20T20:49:51.635Z,99.90
2019-05-20T20:52:20.990Z,99.90
2019-05-20T20:54:50.372Z,99.90
2019-05-20T20:57:19.710Z,99.90
2019-05-20T20:59:50.337Z,99.90
2019-05-20T21:02:19.747Z,99.90
2019-05-20T21:04:49.122Z,99.90
2019-05-20T21:07:18.524Z,99.90
2019-05-20T21:09:47.823Z,99.90
2019-05-20T21:12:17.258Z,99.90
2019-05-20T21:14:46.596Z,99.90
2019-05-20T21:17:15.965Z,99.90
2019-05-20T21:19:45.412Z,99.90
2019-05-20T21:22:14.743Z,99.90
2019-05-20T21:24:44.105Z,99.90
2019-05-20T21:27:13.424Z,99.90
2019-05-20T21:29:42.868Z,99.90
2019-05-20T21:32:12.320Z,99.90
2019-05-20T21:34:41.764Z,99.90
2019-05-20T21:37:11.150Z,99.90
2019-05-20T21:39:40.484Z,99.90
2019-05-20T21:42:09.815Z,99.90
2019-05-20T21:44:39.244Z,99.90
2019-05-20T21:47:08.635Z,99.90
2019-05-20T21:49:38.040Z,99.90
2019-05-20T21:52:07.422Z,99.90
2019-05-20T21:54:36.841Z,99.90
2019-05-20T21:57:06.209Z,99.90
2019-05-20T21:59:35.586Z,99.90
2019-05-20T22:02:05.101Z,99.90
2019-05-20T22:04:34.476Z,99.90
2019-05-20T22:07:05.001Z,99.90
2019-05-20T22:09:34.316Z,99.90
2019-05-20T22:12:04.854Z,99.90
2019-05-20T22:14:34.154Z,99.90
2019-05-20T22:17:03.714Z,99.90
2019-05-20T22:19:33.110Z,99.90
2019-05-20T22:22:19.160Z,99.90
2019-05-20T22:24:48.454Z,99.90
2019-05-20T22:27:17.809Z,99.90
2019-05-20T22:29:47.125Z,99.90
2019-05-20T22:32:34.797Z,99.90
2019-05-20T22:35:06.047Z,99.90
2019-05-20T22:37:35.459Z,99.90
2019-05-20T22:40:06.334Z,99.90
2019-05-20T22:42:35.641Z,99.90
2019-05-20T22:45:07.044Z,99.90
2019-05-20T22:47:36.411Z,99.90
2019-05-20T22:50:05.858Z,99.90
2019-05-20T22:52:35.283Z,99.90
2019-05-20T22:55:05.014Z,99.90
2019-05-20T22:57:34.403Z,99.90
2019-05-20T23:00:03.939Z,99.90
2019-05-20T23:02:33.303Z,99.90
2019-05-20T23:05:02.587Z,99.90
2019-05-20T23:07:31.959Z,99.90
2019-05-20T23:10:01.356Z,99.90
2019-05-20T23:12:30.661Z,99.90
2019-05-20T23:15:00.001Z,99.90
2019-05-20T23:17:29.368Z,99.90
2019-05-20T23:19:58.780Z,99.90
2019-05-20T23:22:28.169Z,99.90
2019-05-20T23:24:57.517Z,99.90
2019-05-20T23:27:26.978Z,99.90
2019-05-20T23:29:56.318Z,99.90
2019-05-20T23:32:25.656Z,99.90
2019-05-20T23:34:55.057Z,99.90
2019-05-20T23:37:25.738Z,99.90
2019-05-20T23:39:55.007Z,99.90
2019-05-20T23:42:24.373Z,99.90
2019-05-20T23:44:53.663Z,99.90
2019-05-20T23:47:23.235Z,99.90
2019-05-20T23:49:52.625Z,99.90
2019-05-20T23:52:22.059Z,99.90
2019-05-20T23:54:51.372Z,99.90
2019-05-20T23:57:20.783Z,99.90
2019-05-20T23:59:50.105Z,99.90
